createdAt,value
2022-07-26T00:02:18.576Z,20.10
2022-07-26T00:05:07.043Z,19.90
2022-07-26T00:08:10.558Z,19.80
2022-07-26T00:10:57.593Z,19.80
2022-07-26T00:13:45.046Z,19.70
2022-07-26T00:16:32.557Z,19.60
2022-07-26T00:19:19.911Z,19.50
2022-07-26T00:22:25.562Z,19.60
2022-07-26T00:25:14.011Z,19.70
2022-07-26T00:28:01.534Z,19.70
2022-07-26T00:30:49.274Z,19.70
2022-07-26T00:33:36.676Z,19.60
2022-07-26T00:36:23.999Z,19.60
2022-07-26T00:39:11.694Z,19.80
2022-07-26T00:42:00.635Z,19.70
2022-07-26T00:44:48.272Z,19.60
2022-07-26T00:47:36.103Z,19.60
2022-07-26T00:50:23.623Z,19.60
2022-07-26T00:53:11.271Z,19.60
2022-07-26T00:55:58.699Z,19.60
2022-07-26T00:58:47.112Z,19.40
2022-07-26T01:01:34.442Z,19.40
2022-07-26T01:04:21.656Z,19.50
2022-07-26T01:07:15.377Z,19.60
2022-07-26T01:10:03.260Z,19.70
2022-07-26T01:12:50.450Z,19.70
2022-07-26T01:15:39.283Z,19.80
2022-07-26T01:18:26.662Z,19.70
2022-07-26T01:21:14.289Z,19.80
2022-07-26T01:24:03.383Z,19.80
2022-07-26T01:26:50.662Z,19.70
2022-07-26T01:29:38.176Z,19.90
2022-07-26T01:32:25.424Z,19.90
2022-07-26T01:35:12.640Z,19.90
2022-07-26T01:38:00.127Z,19.90
2022-07-26T01:40:49.020Z,19.90
2022-07-26T01:43:37.270Z,19.80
2022-07-26T01:46:24.617Z,19.90
2022-07-26T01:49:12.078Z,19.90
2022-07-26T01:51:59.417Z,19.90
2022-07-26T01:54:46.869Z,19.80
2022-07-26T01:57:35.598Z,19.70
2022-07-26T02:00:22.826Z,19.80
2022-07-26T02:03:10.201Z,19.80
2022-07-26T02:05:57.346Z,19.90
2022-07-26T02:08:44.669Z,19.70
2022-07-26T02:11:32.064Z,19.80
2022-07-26T02:14:25.669Z,19.60
2022-07-26T02:17:15.910Z,19.60
2022-07-26T02:20:03.077Z,19.50
2022-07-26T02:22:50.518Z,19.50
2022-07-26T02:25:37.724Z,19.50
2022-07-26T02:28:25.228Z,19.50
2022-07-26T02:31:15.419Z,19.40
2022-07-26T02:34:02.888Z,19.40
2022-07-26T02:36:50.307Z,19.50
2022-07-26T02:39:37.657Z,19.40
2022-07-26T02:42:24.996Z,19.50
2022-07-26T02:45:12.547Z,19.30
2022-07-26T02:48:01.107Z,19.30
2022-07-26T02:50:48.623Z,19.40
2022-07-26T02:53:35.899Z,19.40
2022-07-26T02:56:23.815Z,19.40
2022-07-26T02:59:11.152Z,19.50
2022-07-26T03:01:58.854Z,19.50
2022-07-26T03:04:47.586Z,19.50
2022-07-26T03:07:35.697Z,19.50
2022-07-26T03:10:23.267Z,19.30
2022-07-26T03:13:10.618Z,19.20
2022-07-26T03:15:58.170Z,19.30
2022-07-26T03:18:46.085Z,19.30
2022-07-26T03:21:34.454Z,19.20
2022-07-26T03:24:21.681Z,19.20
2022-07-26T03:27:10.066Z,19.10
2022-07-26T03:29:57.481Z,19.10
2022-07-26T03:32:44.738Z,19.00
2022-07-26T03:35:36.623Z,19.10
2022-07-26T03:38:25.228Z,19.00
2022-07-26T03:41:12.810Z,19.00
2022-07-26T03:44:01.062Z,19.00
2022-07-26T03:46:48.457Z,19.00
2022-07-26T03:49:35.979Z,19.00
2022-07-26T03:52:23.097Z,18.90
2022-07-26T03:55:29.653Z,18.90
2022-07-26T03:58:16.973Z,18.90
2022-07-26T04:01:04.547Z,18.90
2022-07-26T04:03:52.325Z,18.90
2022-07-26T04:06:40.459Z,18.90
2022-07-26T04:09:28.500Z,18.90
2022-07-26T04:12:17.038Z,18.90
2022-07-26T04:15:04.830Z,18.90
2022-07-26T04:17:52.131Z,18.80
2022-07-26T04:20:39.573Z,18.90
2022-07-26T04:23:27.043Z,18.90
2022-07-26T04:26:14.307Z,18.80
2022-07-26T04:29:03.108Z,18.80
2022-07-26T04:31:51.743Z,18.80
2022-07-26T04:34:38.857Z,18.80
2022-07-26T04:37:26.307Z,18.80
2022-07-26T04:40:21.047Z,18.90
2022-07-26T04:43:10.107Z,19.00
2022-07-26T04:46:04.492Z,19.10
2022-07-26T04:48:51.689Z,19.10
2022-07-26T04:51:38.767Z,19.10
2022-07-26T04:54:26.074Z,19.30
2022-07-26T04:57:13.632Z,19.20
2022-07-26T05:00:20.336Z,19.30
2022-07-26T05:03:09.649Z,19.40
2022-07-26T05:05:56.943Z,19.50
2022-07-26T05:08:44.445Z,19.40
2022-07-26T05:11:31.879Z,19.40
2022-07-26T05:14:19.308Z,19.50
2022-07-26T05:17:10.359Z,19.40
2022-07-26T05:20:03.167Z,19.50
2022-07-26T05:22:50.558Z,19.50
2022-07-26T05:25:37.980Z,19.50
2022-07-26T05:28:25.496Z,19.50
2022-07-26T05:31:12.834Z,19.50
2022-07-26T05:34:00.253Z,19.40
2022-07-26T05:36:49.040Z,19.40
2022-07-26T05:39:37.431Z,19.50
2022-07-26T05:42:25.642Z,19.40
2022-07-26T05:45:13.190Z,19.50
2022-07-26T05:48:00.619Z,19.60
2022-07-26T05:50:48.044Z,19.50
2022-07-26T05:53:39.084Z,19.60
2022-07-26T05:56:26.702Z,19.70
2022-07-26T05:59:13.674Z,19.90
2022-07-26T06:02:01.145Z,19.90
2022-07-26T06:04:48.783Z,19.90
2022-07-26T06:07:36.006Z,20.20
2022-07-26T06:10:24.917Z,20.30
2022-07-26T06:13:12.316Z,20.40
2022-07-26T06:15:59.468Z,20.60
2022-07-26T06:18:46.656Z,20.70
2022-07-26T06:21:34.143Z,20.90
2022-07-26T06:24:21.261Z,21.30
2022-07-26T06:27:09.965Z,21.50
2022-07-26T06:29:57.453Z,21.80
2022-07-26T06:32:45.088Z,22.10
2022-07-26T06:35:35.384Z,22.00
2022-07-26T06:38:22.808Z,21.90
2022-07-26T06:41:10.214Z,21.90
2022-07-26T06:43:58.976Z,21.80
2022-07-26T06:46:46.281Z,21.90
2022-07-26T06:49:33.590Z,22.10
2022-07-26T06:52:21.414Z,22.00
2022-07-26T06:55:09.423Z,21.70
2022-07-26T06:57:59.851Z,21.50
2022-07-26T07:00:48.548Z,21.60
2022-07-26T07:03:35.623Z,22.00
2022-07-26T07:06:23.089Z,22.50
2022-07-26T07:09:10.869Z,22.50
2022-07-26T07:12:05.415Z,22.80
2022-07-26T07:14:57.574Z,22.60
2022-07-26T07:17:46.331Z,23.00
2022-07-26T07:20:34.332Z,23.30
2022-07-26T07:23:23.191Z,23.50
2022-07-26T07:26:10.482Z,23.60
2022-07-26T07:28:57.968Z,23.70
2022-07-26T07:31:48.777Z,24.00
2022-07-26T07:34:37.747Z,23.00
2022-07-26T07:37:25.082Z,23.30
2022-07-26T07:40:13.722Z,23.00
2022-07-26T07:43:00.942Z,22.80
2022-07-26T07:45:48.794Z,22.60
2022-07-26T07:48:36.378Z,22.60
2022-07-26T07:51:25.032Z,22.70
2022-07-26T07:54:15.922Z,22.80
2022-07-26T07:57:03.365Z,23.10
2022-07-26T07:59:51.289Z,22.80
2022-07-26T08:02:38.745Z,23.40
2022-07-26T08:05:26.294Z,23.40
2022-07-26T08:08:14.583Z,23.90
2022-07-26T08:11:02.317Z,24.00
2022-07-26T08:13:51.103Z,24.10
2022-07-26T08:16:38.834Z,24.00
2022-07-26T08:19:40.931Z,24.10
2022-07-26T08:22:29.063Z,24.10
2022-07-26T08:25:17.700Z,24.20
2022-07-26T08:28:06.048Z,24.30
2022-07-26T08:30:53.044Z,24.70
2022-07-26T08:33:41.040Z,24.80
2022-07-26T08:36:33.936Z,24.50
2022-07-26T08:39:21.098Z,24.60
2022-07-26T08:42:16.034Z,24.40
2022-07-26T08:45:03.298Z,24.40
2022-07-26T08:48:15.123Z,23.90
2022-07-26T08:50:58.138Z,24.20
2022-07-26T08:53:45.599Z,23.90
2022-07-26T08:56:33.888Z,23.90
2022-07-26T08:59:23.416Z,23.60
2022-07-26T09:02:13.703Z,24.30
2022-07-26T09:05:05.665Z,24.60
2022-07-26T09:07:52.656Z,24.90
2022-07-26T09:10:40.048Z,25.30
2022-07-26T09:13:27.291Z,24.90
2022-07-26T09:16:16.245Z,25.00
2022-07-26T09:19:17.687Z,24.80
2022-07-26T09:22:10.710Z,24.50
2022-07-26T09:24:58.399Z,24.20
2022-07-26T09:27:45.834Z,24.40
2022-07-26T09:30:33.751Z,23.70
2022-07-26T09:33:22.567Z,23.50
2022-07-26T09:36:10.680Z,23.60
2022-07-26T09:39:03.681Z,23.50
2022-07-26T09:42:10.933Z,23.40
2022-07-26T09:44:59.762Z,23.20
2022-07-26T09:47:47.188Z,23.50
2022-07-26T09:50:35.799Z,23.40
2022-07-26T09:53:23.067Z,24.00
2022-07-26T09:56:10.417Z,24.40
2022-07-26T09:58:58.006Z,25.30
2022-07-26T10:01:45.626Z,25.20
2022-07-26T10:04:32.991Z,24.70
2022-07-26T10:07:22.004Z,24.30
2022-07-26T10:10:13.999Z,24.60
2022-07-26T10:13:02.924Z,25.20
2022-07-26T10:15:51.940Z,24.80
2022-07-26T10:18:45.020Z,25.00
2022-07-26T10:21:32.469Z,24.80
2022-07-26T10:24:28.502Z,24.70
2022-07-26T10:27:40.196Z,25.00
2022-07-26T10:30:35.370Z,25.10
2022-07-26T10:33:25.865Z,25.10
2022-07-26T10:36:23.620Z,25.20
2022-07-26T10:39:13.504Z,25.20
2022-07-26T10:42:04.403Z,24.90
2022-07-26T10:44:51.704Z,24.80
2022-07-26T10:47:38.801Z,24.20
2022-07-26T10:50:34.177Z,23.90
2022-07-26T10:53:23.416Z,24.20
2022-07-26T10:56:10.406Z,24.20
2022-07-26T10:58:59.215Z,24.00
2022-07-26T11:01:46.431Z,24.60
2022-07-26T11:04:33.974Z,25.30
2022-07-26T11:07:23.244Z,25.30
2022-07-26T11:10:10.727Z,25.30
2022-07-26T11:13:10.730Z,25.00
2022-07-26T11:16:03.361Z,24.90
2022-07-26T11:18:51.658Z,24.50
2022-07-26T11:21:40.498Z,24.40
2022-07-26T11:24:28.457Z,24.00
2022-07-26T11:27:15.870Z,24.60
2022-07-26T11:30:05.131Z,24.50
2022-07-26T11:38:07.898Z,24.90
2022-07-26T11:40:58.510Z,25.30
2022-07-26T11:43:45.734Z,25.50
2022-07-26T11:46:38.656Z,25.50
2022-07-26T11:49:59.852Z,25.60
2022-07-26T11:52:35.584Z,26.00
2022-07-26T11:55:31.651Z,25.80
2022-07-26T11:58:19.387Z,25.50
2022-07-26T12:01:07.539Z,25.20
2022-07-26T12:03:56.053Z,24.90
2022-07-26T12:06:43.076Z,24.90
2022-07-26T12:09:32.234Z,24.70
2022-07-26T12:12:27.379Z,24.60
2022-07-26T12:15:15.605Z,24.70
2022-07-26T12:18:02.844Z,24.30
2022-07-26T12:21:06.307Z,24.60
2022-07-26T12:23:54.658Z,24.50
2022-07-26T12:26:42.047Z,23.00
2022-07-26T12:29:35.518Z,21.50
2022-07-26T12:32:24.844Z,20.90
2022-07-26T12:35:13.739Z,20.30
2022-07-26T12:38:01.095Z,20.00
2022-07-26T12:40:48.458Z,19.60
2022-07-26T12:43:40.598Z,19.50
2022-07-26T12:46:33.312Z,19.20
2022-07-26T12:49:20.845Z,19.30
2022-07-26T12:52:08.170Z,19.20
2022-07-26T12:54:55.443Z,19.10
2022-07-26T12:57:47.208Z,19.10
2022-07-26T13:00:35.114Z,19.30
2022-07-26T13:03:23.849Z,19.50
2022-07-26T13:06:11.315Z,19.70
2022-07-26T13:08:58.694Z,19.80
2022-07-26T13:11:46.090Z,19.70
2022-07-26T13:14:34.053Z,19.90
2022-07-26T13:17:21.320Z,19.80
2022-07-26T13:20:10.590Z,19.60
2022-07-26T13:22:58.062Z,20.00
2022-07-26T13:25:45.582Z,19.40
2022-07-26T13:28:33.323Z,19.50
2022-07-26T13:31:20.854Z,19.70
2022-07-26T13:34:08.645Z,19.80
2022-07-26T13:36:57.825Z,19.70
2022-07-26T13:39:45.148Z,19.90
2022-07-26T13:42:32.433Z,19.90
2022-07-26T13:45:19.863Z,19.70
2022-07-26T13:48:07.611Z,19.80
2022-07-26T13:50:55.036Z,20.00
2022-07-26T13:53:55.165Z,20.40
2022-07-26T13:56:42.954Z,20.00
2022-07-26T13:59:30.379Z,20.00
2022-07-26T14:02:17.882Z,20.10
2022-07-26T14:05:05.553Z,20.10
2022-07-26T14:07:52.690Z,19.80
2022-07-26T14:10:41.691Z,20.00
2022-07-26T14:13:28.974Z,20.10
2022-07-26T14:16:16.431Z,20.50
2022-07-26T14:19:04.147Z,20.20
2022-07-26T14:21:59.332Z,20.30
2022-07-26T14:24:47.270Z,20.10
2022-07-26T14:27:36.099Z,20.00
2022-07-26T14:30:23.514Z,20.40
2022-07-26T14:33:10.751Z,20.20
2022-07-26T14:35:57.819Z,20.20
2022-07-26T14:38:45.740Z,20.20
2022-07-26T14:41:32.912Z,20.40
2022-07-26T14:44:21.770Z,20.60
2022-07-26T14:47:10.822Z,20.70
2022-07-26T14:50:00.569Z,20.60
2022-07-26T14:52:51.356Z,20.50
2022-07-26T14:55:38.772Z,20.60
2022-07-26T14:58:26.127Z,21.10
2022-07-26T15:01:14.979Z,21.10
2022-07-26T15:04:02.621Z,21.20
2022-07-26T15:06:50.256Z,20.90
2022-07-26T15:09:37.621Z,20.80
2022-07-26T15:12:25.002Z,21.40
2022-07-26T15:15:12.651Z,21.10
2022-07-26T15:18:01.576Z,21.30
2022-07-26T15:20:48.734Z,21.60
2022-07-26T15:23:36.099Z,21.90
2022-07-26T15:26:23.404Z,21.90
2022-07-26T15:29:10.909Z,21.80
2022-07-26T15:31:58.204Z,21.60
2022-07-26T15:34:46.754Z,21.90
2022-07-26T15:37:34.473Z,22.30
2022-07-26T15:40:21.820Z,22.40
2022-07-26T15:43:09.119Z,22.20
2022-07-26T15:45:57.510Z,22.20
2022-07-26T15:48:44.715Z,21.90
2022-07-26T15:51:33.464Z,22.00
2022-07-26T15:54:20.828Z,22.00
2022-07-26T15:57:07.989Z,22.00
2022-07-26T15:59:55.433Z,21.70
2022-07-26T16:02:43.342Z,21.60
2022-07-26T16:05:30.641Z,21.80
2022-07-26T16:08:19.295Z,21.80
2022-07-26T16:11:06.679Z,21.80
2022-07-26T16:14:01.102Z,21.80
2022-07-26T16:16:49.229Z,21.80
2022-07-26T16:19:36.540Z,22.00
2022-07-26T16:22:24.037Z,21.90
2022-07-26T16:25:13.898Z,21.90
2022-07-26T16:28:01.060Z,21.90
2022-07-26T16:30:48.301Z,22.20
2022-07-26T16:33:35.642Z,22.10
2022-07-26T16:36:23.180Z,21.80
2022-07-26T16:39:11.541Z,21.60
2022-07-26T16:42:04.706Z,21.60
2022-07-26T16:44:53.747Z,21.60
2022-07-26T16:47:40.835Z,21.60
2022-07-26T16:50:28.411Z,21.70
2022-07-26T16:53:15.795Z,21.90
2022-07-26T16:56:03.063Z,21.80
2022-07-26T16:58:51.643Z,21.90
2022-07-26T17:01:39.008Z,21.70
2022-07-26T17:04:26.477Z,21.70
2022-07-26T17:07:28.886Z,21.80
2022-07-26T17:10:16.326Z,21.70
2022-07-26T17:13:03.918Z,21.60
2022-07-26T17:15:52.504Z,21.50
2022-07-26T17:18:39.486Z,21.70
2022-07-26T17:21:27.037Z,21.90
2022-07-26T17:24:15.324Z,22.00
2022-07-26T17:27:02.506Z,22.10
2022-07-26T17:29:51.879Z,22.20
2022-07-26T17:32:40.531Z,22.30
2022-07-26T17:35:27.710Z,22.30
2022-07-26T17:38:15.010Z,22.50
2022-07-26T17:41:02.762Z,22.40
2022-07-26T17:43:52.829Z,22.00
2022-07-26T17:46:40.131Z,21.80
2022-07-26T17:49:28.748Z,21.70
2022-07-26T17:52:16.005Z,21.60
2022-07-26T17:55:03.338Z,21.60
2022-07-26T17:57:51.457Z,21.50
2022-07-26T18:00:38.942Z,21.50
2022-07-26T18:03:26.580Z,21.40
2022-07-26T18:06:15.288Z,21.40
2022-07-26T18:09:04.185Z,21.40
2022-07-26T18:11:51.620Z,21.40
2022-07-26T18:14:39.110Z,21.50
2022-07-26T18:17:26.389Z,21.50
2022-07-26T18:20:14.074Z,21.40
2022-07-26T18:23:03.677Z,21.30
2022-07-26T18:25:53.459Z,21.10
2022-07-26T18:28:40.830Z,21.00
2022-07-26T18:31:30.891Z,20.90
2022-07-26T18:34:18.135Z,20.80
2022-07-26T18:37:06.124Z,20.80
2022-07-26T18:39:57.830Z,20.70
2022-07-26T18:42:45.170Z,20.70
2022-07-26T18:45:32.665Z,20.60
2022-07-26T18:48:19.772Z,20.60
2022-07-26T18:51:07.567Z,20.60
2022-07-26T18:53:55.126Z,20.50
2022-07-26T18:56:43.816Z,20.50
2022-07-26T18:59:31.175Z,20.40
2022-07-26T19:02:18.451Z,20.30
2022-07-26T19:05:06.610Z,20.30
2022-07-26T19:07:54.051Z,20.20
2022-07-26T19:10:41.413Z,20.20
2022-07-26T19:13:30.378Z,20.10
2022-07-26T19:16:17.637Z,20.00
2022-07-26T19:19:06.459Z,20.00
2022-07-26T19:21:53.902Z,19.90
2022-07-26T19:24:41.243Z,19.90
2022-07-26T19:27:28.896Z,19.80
2022-07-26T19:30:17.367Z,19.90
2022-07-26T19:33:04.801Z,19.80
2022-07-26T19:35:53.351Z,19.80
2022-07-26T19:38:40.497Z,19.70
2022-07-26T19:41:28.002Z,19.60
2022-07-26T19:44:15.194Z,19.70
2022-07-26T19:47:03.665Z,19.60
2022-07-26T19:49:51.203Z,19.60
2022-07-26T19:52:38.450Z,19.50
2022-07-26T19:55:25.886Z,19.50
2022-07-26T19:58:13.473Z,19.40
2022-07-26T20:01:00.795Z,19.30
2022-07-26T20:03:49.532Z,19.40
2022-07-26T20:06:36.692Z,19.40
2022-07-26T20:09:24.149Z,19.30
2022-07-26T20:12:11.513Z,19.20
2022-07-26T20:14:58.760Z,19.20
2022-07-26T20:17:46.188Z,19.10
2022-07-26T20:20:34.915Z,19.10
2022-07-26T20:23:22.071Z,19.10
2022-07-26T20:26:09.304Z,19.00
2022-07-26T20:28:58.025Z,18.90
2022-07-26T20:31:45.862Z,18.90
2022-07-26T20:34:33.204Z,18.90
2022-07-26T20:37:22.149Z,18.80
2022-07-26T20:40:10.279Z,18.90
2022-07-26T20:42:57.498Z,18.80
2022-07-26T20:45:44.861Z,18.90
2022-07-26T20:48:31.950Z,18.80
2022-07-26T20:51:19.359Z,18.60
2022-07-26T20:54:10.119Z,18.70
2022-07-26T20:56:57.067Z,18.70
2022-07-26T20:59:44.502Z,18.60
2022-07-26T21:02:31.784Z,18.60
2022-07-26T21:05:18.777Z,18.50
2022-07-26T21:08:06.289Z,18.50
2022-07-26T21:10:54.954Z,18.50
2022-07-26T21:13:42.179Z,18.40
2022-07-26T21:16:29.424Z,18.40
2022-07-26T21:19:16.624Z,18.30
2022-07-26T21:22:04.295Z,18.30
2022-07-26T21:24:51.583Z,18.30
2022-07-26T21:27:40.475Z,18.20
2022-07-26T21:30:27.682Z,18.20
2022-07-26T21:33:15.272Z,18.10
2022-07-26T21:36:02.697Z,18.20
2022-07-26T21:38:50.200Z,18.20
2022-07-26T21:41:37.643Z,18.20
2022-07-26T21:44:26.758Z,18.20
2022-07-26T21:47:13.897Z,18.20
2022-07-26T21:50:01.227Z,18.20
2022-07-26T21:52:49.188Z,18.20
2022-07-26T21:55:36.644Z,18.10
2022-07-26T21:58:27.756Z,18.10
2022-07-26T22:01:16.515Z,18.00
2022-07-26T22:04:03.789Z,18.00
2022-07-26T22:06:51.006Z,18.00
2022-07-26T22:09:37.956Z,17.90
2022-07-26T22:12:25.182Z,17.90
2022-07-26T22:15:12.607Z,17.90
2022-07-26T22:18:01.764Z,17.90
2022-07-26T22:20:49.822Z,17.80
2022-07-26T22:23:36.880Z,17.80
2022-07-26T22:26:26.867Z,17.70
2022-07-26T22:29:14.727Z,17.80
2022-07-26T22:32:02.012Z,17.80
2022-07-26T22:34:50.748Z,17.70
2022-07-26T22:37:37.809Z,17.70
2022-07-26T22:40:25.409Z,17.60
2022-07-26T22:43:13.133Z,17.60
2022-07-26T22:46:00.562Z,17.60
2022-07-26T22:48:48.257Z,17.60
2022-07-26T22:51:36.749Z,17.50
2022-07-26T22:54:23.797Z,17.50
2022-07-26T22:57:11.271Z,17.50
2022-07-26T22:59:58.339Z,17.40
2022-07-26T23:02:45.942Z,17.40
2022-07-26T23:05:45.751Z,17.30
2022-07-26T23:08:46.961Z,17.30
2022-07-26T23:11:34.514Z,17.30
2022-07-26T23:14:21.968Z,17.30
2022-07-26T23:17:09.303Z,17.30
2022-07-26T23:19:56.664Z,17.30
2022-07-26T23:22:43.898Z,17.20
2022-07-26T23:25:32.546Z,17.20
2022-07-26T23:28:35.783Z,17.10
2022-07-26T23:31:24.921Z,17.10
2022-07-26T23:34:12.042Z,17.00
2022-07-26T23:36:59.505Z,17.00
2022-07-26T23:39:46.895Z,17.00
2022-07-26T23:42:35.454Z,17.00
2022-07-26T23:45:22.756Z,17.00
2022-07-26T23:48:09.888Z,17.00
2022-07-26T23:50:58.434Z,16.90
2022-07-26T23:53:45.476Z,17.00
2022-07-26T23:56:32.874Z,16.80
2022-07-26T23:59:21.650Z,16.80
